Time;durP1;ratioP1;P1;durP2;ratioP2;P2;SDS_P1;SDS_P2;PMS_P1;PMS_P2;Temp;Humidity;BMP_temperature;BMP_pressure;BME280_temperature;BME280_humidity;BME280_pressure;Samples;Min_cycle;Max_cycle;Signal;HPM_P1;HPM_P2
2023/08/09 00:00:40;;;;;;;2.30;2.10;;;23.90;49.10;;;;;;5046911;28;20233;-46
2023/08/09 00:03:06;;;;;;;2.77;2.10;;;23.90;49.20;;;;;;5050046;28;20188;-46
2023/08/09 00:05:31;;;;;;;1.80;1.70;;;23.90;49.30;;;;;;5049566;28;20565;-47
2023/08/09 00:07:57;;;;;;;3.17;2.20;;;23.90;48.90;;;;;;5044373;28;20204;-48
2023/08/09 00:10:22;;;;;;;2.30;2.10;;;23.80;48.60;;;;;;5051603;28;20207;-47
2023/08/09 00:12:49;;;;;;;4.63;1.90;;;23.80;48.70;;;;;;5051975;28;20234;-46
2023/08/09 00:15:14;;;;;;;3.90;2.03;;;23.90;49.40;;;;;;5050529;28;20197;-48
2023/08/09 00:17:40;;;;;;;2.60;2.30;;;24.00;49.60;;;;;;5051496;28;21016;-46
2023/08/09 00:20:11;;;;;;;1.90;1.70;;;24.00;49.60;;;;;;5051781;28;20603;-47
2023/08/09 00:22:37;;;;;;;2.60;2.40;;;24.10;50.20;;;;;;5048019;28;20455;-46
2023/08/09 00:25:03;;;;;;;2.73;2.10;;;24.10;50.60;;;;;;5038218;28;20485;-49
2023/08/09 00:27:29;;;;;;;1.80;1.70;;;24.00;50.90;;;;;;5043485;28;20481;-48
2023/08/09 00:29:55;;;;;;;4.53;2.30;;;24.00;50.40;;;;;;5044587;28;20467;-48
2023/08/09 00:32:20;;;;;;;4.13;2.70;;;23.90;50.50;;;;;;5043409;28;20279;-46
2023/08/09 00:34:46;;;;;;;3.10;1.93;;;23.80;50.40;;;;;;5044224;28;20231;-46
2023/08/09 00:37:12;;;;;;;2.30;2.03;;;23.80;50.60;;;;;;5050820;28;20741;-48
2023/08/09 00:39:37;;;;;;;3.10;2.07;;;23.70;50.80;;;;;;5042810;28;20220;-48
2023/08/09 00:42:03;;;;;;;3.53;2.10;;;23.60;51.00;;;;;;5039454;28;20197;-46
2023/08/09 00:44:29;;;;;;;2.30;2.10;;;23.60;51.20;;;;;;5043910;28;20236;-48
2023/08/09 00:46:54;;;;;;;1.60;1.50;;;23.60;51.00;;;;;;5045386;28;20217;-46
2023/08/09 00:49:20;;;;;;;3.67;1.93;;;23.70;51.00;;;;;;5045749;28;20782;-47
2023/08/09 00:51:46;;;;;;;3.43;2.10;;;23.60;50.80;;;;;;5043658;28;20279;-47
2023/08/09 00:54:12;;;;;;;3.33;2.33;;;23.50;50.70;;;;;;5043504;28;20654;-47
2023/08/09 00:56:38;;;;;;;2.37;1.97;;;23.40;50.80;;;;;;5048147;28;20438;-46
2023/08/09 00:59:04;;;;;;;2.60;2.27;;;23.40;50.90;;;;;;5047464;28;20836;-47
2023/08/09 01:01:30;;;;;;;3.50;1.97;;;23.40;51.00;;;;;;5044387;28;20451;-48
2023/08/09 01:03:56;;;;;;;2.37;1.90;;;23.40;51.20;;;;;;5041757;28;20192;-50
2023/08/09 01:06:49;;;;;;;2.30;2.10;;;23.40;51.20;;;;;;5043718;28;20199;-47
2023/08/09 01:09:37;;;;;;;5.37;2.03;;;23.40;51.30;;;;;;5040994;28;20532;-48
2023/08/09 01:12:09;;;;;;;3.20;2.00;;;23.30;51.30;;;;;;5039085;28;21003;-49
2023/08/09 01:14:37;;;;;;;1.87;1.60;;;23.30;51.60;;;;;;5043416;28;20431;-46
2023/08/09 01:17:05;;;;;;;1.90;1.80;;;23.20;51.60;;;;;;5043078;28;20968;-50
2023/08/09 01:19:41;;;;;;;2.50;2.30;;;23.30;51.80;;;;;;5044057;28;20779;-46
2023/08/09 01:22:15;;;;;;;4.13;2.10;;;23.30;52.10;;;;;;5042915;28;20452;-48
2023/08/09 01:24:42;;;;;;;2.53;2.03;;;23.30;52.10;;;;;;5042611;28;20574;-45
2023/08/09 01:27:08;;;;;;;2.60;2.40;;;23.30;52.10;;;;;;5044395;28;20447;-48
2023/08/09 01:29:35;;;;;;;2.17;1.97;;;23.30;52.30;;;;;;5043726;28;20516;-50
2023/08/09 01:32:00;;;;;;;5.23;2.30;;;23.30;52.30;;;;;;5040332;28;20455;-49
2023/08/09 01:34:26;;;;;;;2.00;1.90;;;23.30;52.70;;;;;;5044415;28;20838;-48
2023/08/09 01:36:52;;;;;;;3.90;1.90;;;23.20;52.30;;;;;;5041942;28;20223;-50
2023/08/09 01:39:22;;;;;;;2.33;2.13;;;22.90;53.00;;;;;;5047683;28;20551;-50
2023/08/09 01:41:50;;;;;;;2.43;2.20;;;22.80;53.60;;;;;;5047985;28;20279;-50
2023/08/09 01:44:16;;;;;;;2.50;2.30;;;22.80;53.80;;;;;;5049393;28;21046;-46
2023/08/09 01:46:43;;;;;;;2.30;1.90;;;22.90;54.00;;;;;;5046793;28;20943;-48
2023/08/09 01:49:14;;;;;;;3.00;2.30;;;23.00;54.00;;;;;;5043087;28;20451;-46
2023/08/09 01:51:40;;;;;;;2.93;2.47;;;23.00;54.00;;;;;;5042101;28;20455;-48
2023/08/09 01:54:07;;;;;;;3.20;2.47;;;23.10;54.10;;;;;;5042602;28;20938;-50
2023/08/09 01:56:34;;;;;;;2.50;2.30;;;23.10;54.20;;;;;;5048827;28;20440;-46
2023/08/09 01:59:00;;;;;;;4.37;2.40;;;23.10;54.50;;;;;;5050587;28;20803;-46
2023/08/09 02:01:26;;;;;;;4.07;2.37;;;23.10;54.30;;;;;;5048848;28;20449;-47
2023/08/09 02:03:52;;;;;;;4.10;1.97;;;23.10;54.40;;;;;;5050169;28;20270;-48
2023/08/09 02:06:17;;;;;;;3.40;2.10;;;23.10;54.80;;;;;;5047892;28;20938;-46
2023/08/09 02:08:44;;;;;;;2.87;1.90;;;23.10;55.60;;;;;;5047199;28;20562;-47
2023/08/09 02:11:09;;;;;;;3.23;2.10;;;23.10;56.50;;;;;;5046781;28;20212;-48
2023/08/09 02:13:35;;;;;;;4.13;2.33;;;23.00;56.70;;;;;;5051119;28;20439;-46
2023/08/09 02:16:04;;;;;;;2.87;2.30;;;23.00;56.90;;;;;;5051455;28;20223;-46
2023/08/09 02:18:30;;;;;;;2.57;2.37;;;23.00;57.00;;;;;;5052374;28;20287;-49
2023/08/09 02:20:56;;;;;;;5.30;2.27;;;22.90;57.00;;;;;;5049509;28;20526;-46
2023/08/09 02:23:21;;;;;;;2.63;1.93;;;22.90;56.60;;;;;;5048326;28;20246;-47
2023/08/09 02:25:47;;;;;;;2.53;2.33;;;22.90;56.10;;;;;;5048733;28;20232;-48
2023/08/09 02:28:13;;;;;;;1.93;1.83;;;22.80;56.10;;;;;;5050408;28;20691;-46
2023/08/09 02:30:38;;;;;;;3.13;2.77;;;22.70;56.00;;;;;;5045292;28;20189;-47
2023/08/09 02:33:04;;;;;;;2.73;2.20;;;22.70;55.80;;;;;;5041580;28;20213;-46
2023/08/09 02:35:51;;;;;;;3.23;2.13;;;22.80;55.50;;;;;;5048091;28;20275;-46
2023/08/09 02:38:16;;;;;;;2.40;2.20;;;22.80;55.50;;;;;;5045207;28;20188;-46
2023/08/09 02:40:42;;;;;;;2.90;2.10;;;22.70;55.30;;;;;;5045663;28;20458;-46
2023/08/09 02:43:08;;;;;;;3.83;2.07;;;22.70;55.70;;;;;;5047512;28;20277;-47
2023/08/09 02:45:33;;;;;;;2.33;1.73;;;22.80;56.10;;;;;;5038838;28;22668;-46
2023/08/09 02:47:59;;;;;;;3.03;2.07;;;22.60;55.30;;;;;;5035521;28;20513;-49
2023/08/09 02:50:24;;;;;;;4.17;2.20;;;22.60;55.80;;;;;;5036769;28;20204;-46
2023/08/09 02:52:50;;;;;;;2.20;2.10;;;22.60;55.20;;;;;;5038649;28;20193;-46
2023/08/09 02:55:17;;;;;;;2.50;2.30;;;22.70;55.40;;;;;;5041831;28;20197;-47
2023/08/09 02:57:42;;;;;;;1.90;1.80;;;22.70;55.30;;;;;;5041057;28;20193;-46
2023/08/09 03:00:09;;;;;;;1.80;1.70;;;22.70;55.20;;;;;;5038150;28;20458;-46
2023/08/09 03:02:34;;;;;;;3.30;1.97;;;22.60;55.60;;;;;;5044757;28;20717;-46
2023/08/09 03:05:01;;;;;;;2.40;2.20;;;22.50;56.40;;;;;;5049106;28;20524;-46
2023/08/09 03:07:27;;;;;;;2.30;2.10;;;22.50;56.50;;;;;;5042037;28;20291;-46
2023/08/09 03:09:53;;;;;;;2.57;2.37;;;22.60;56.90;;;;;;5038937;28;20431;-46
2023/08/09 03:12:19;;;;;;;3.00;2.07;;;22.30;56.80;;;;;;5042269;28;20525;-47
2023/08/09 03:14:44;;;;;;;1.90;1.80;;;22.20;57.80;;;;;;5041388;28;20592;-46
2023/08/09 03:17:11;;;;;;;2.03;1.93;;;22.20;57.90;;;;;;5039482;28;20211;-47
2023/08/09 03:19:36;;;;;;;4.47;2.50;;;22.30;57.60;;;;;;5041557;28;20189;-47
2023/08/09 03:22:02;;;;;;;2.70;2.20;;;22.40;57.60;;;;;;5039319;28;20961;-49
2023/08/09 03:24:27;;;;;;;3.20;2.30;;;22.30;57.80;;;;;;5042064;28;20675;-48
2023/08/09 03:26:53;;;;;;;2.13;1.93;;;22.20;58.30;;;;;;5049756;28;20189;-48
2023/08/09 03:29:18;;;;;;;2.90;2.70;;;22.10;58.70;;;;;;5042887;28;20670;-46
2023/08/09 03:31:44;;;;;;;2.30;2.13;;;21.80;59.20;;;;;;5042310;28;20193;-48
2023/08/09 03:34:10;;;;;;;1.90;1.70;;;21.40;60.00;;;;;;5040380;28;20232;-50
2023/08/09 03:36:35;;;;;;;3.73;2.37;;;21.00;61.10;;;;;;5043954;28;20278;-46
2023/08/09 03:39:01;;;;;;;4.10;2.83;;;20.90;62.10;;;;;;5042229;28;20225;-47
2023/08/09 03:41:26;;;;;;;3.33;2.40;;;21.10;62.10;;;;;;5045885;28;20733;-48
2023/08/09 03:43:52;;;;;;;3.67;2.30;;;21.30;61.60;;;;;;5052008;28;20191;-48
2023/08/09 03:46:17;;;;;;;2.40;2.20;;;21.40;60.90;;;;;;5051551;28;20235;-46
2023/08/09 03:48:43;;;;;;;3.47;2.10;;;21.60;60.60;;;;;;5038612;28;20238;-47
2023/08/09 03:51:09;;;;;;;2.43;2.23;;;21.60;60.40;;;;;;5039063;28;20672;-51
2023/08/09 03:53:35;;;;;;;2.27;2.03;;;21.70;60.00;;;;;;5045042;28;20218;-46
2023/08/09 03:56:00;;;;;;;2.40;2.20;;;21.70;59.40;;;;;;5049289;28;20602;-47
2023/08/09 03:58:27;;;;;;;1.90;1.70;;;21.70;59.10;;;;;;5044578;28;20268;-47
2023/08/09 04:00:52;;;;;;;2.77;1.80;;;21.70;58.90;;;;;;5049154;28;20200;-50
2023/08/09 04:03:18;;;;;;;2.20;2.07;;;21.80;58.70;;;;;;5055529;28;20506;-46
2023/08/09 04:05:44;;;;;;;5.33;2.37;;;21.60;58.40;;;;;;5054336;28;20234;-49
2023/08/09 04:08:10;;;;;;;2.47;2.27;;;21.40;59.20;;;;;;5056444;28;20238;-46
2023/08/09 04:10:35;;;;;;;2.50;2.23;;;21.30;59.50;;;;;;5053344;28;21012;-48
2023/08/09 04:13:01;;;;;;;2.40;1.90;;;21.30;59.60;;;;;;5050291;28;20192;-46
2023/08/09 04:15:26;;;;;;;5.27;2.37;;;21.20;60.00;;;;;;5052789;28;20193;-47
2023/08/09 04:17:52;;;;;;;3.90;2.60;;;21.30;60.10;;;;;;5053183;28;20655;-47
2023/08/09 04:20:19;;;;;;;2.70;2.50;;;21.30;59.70;;;;;;5051053;28;20238;-46
2023/08/09 04:22:45;;;;;;;2.50;2.30;;;21.20;60.10;;;;;;5050639;28;20192;-48
2023/08/09 04:25:11;;;;;;;2.70;2.43;;;21.30;60.00;;;;;;5039475;28;20482;-49
2023/08/09 04:27:38;;;;;;;2.13;1.93;;;21.50;59.80;;;;;;5043316;28;20439;-47
2023/08/09 04:30:09;;;;;;;4.40;2.27;;;21.50;60.10;;;;;;5043423;28;20189;-46
2023/08/09 04:32:35;;;;;;;3.47;2.50;;;21.50;60.10;;;;;;5040861;28;20460;-45
2023/08/09 04:35:00;;;;;;;2.33;2.13;;;21.50;59.90;;;;;;5042207;28;20893;-45
2023/08/09 04:37:27;;;;;;;3.97;2.67;;;21.40;60.10;;;;;;5044562;28;20476;-47
2023/08/09 04:39:53;;;;;;;3.03;2.37;;;21.30;60.10;;;;;;5047515;28;20272;-48
2023/08/09 04:42:19;;;;;;;3.33;2.50;;;21.50;60.00;;;;;;5039716;28;20439;-46
2023/08/09 04:44:45;;;;;;;3.13;2.07;;;21.60;60.10;;;;;;5050106;28;20494;-50
2023/08/09 04:47:12;;;;;;;3.23;1.77;;;21.60;59.80;;;;;;5041515;28;20195;-46
2023/08/09 04:49:37;;;;;;;2.60;2.37;;;21.60;59.60;;;;;;5041339;28;20443;-46
2023/08/09 04:52:04;;;;;;;2.80;2.30;;;21.70;59.40;;;;;;5038576;28;20493;-47
2023/08/09 04:54:29;;;;;;;2.07;1.87;;;21.70;59.10;;;;;;5042553;28;20661;-49
2023/08/09 04:56:55;;;;;;;4.60;2.30;;;21.70;58.90;;;;;;5041143;28;20519;-46
2023/08/09 04:59:20;;;;;;;2.97;2.63;;;21.70;58.90;;;;;;5041205;28;20185;-46
2023/08/09 05:01:46;;;;;;;3.77;2.23;;;21.70;58.70;;;;;;5039767;28;20185;-48
2023/08/09 05:04:12;;;;;;;2.90;2.23;;;21.70;58.20;;;;;;5041608;28;20249;-48
2023/08/09 05:06:39;;;;;;;2.30;2.00;;;21.60;58.50;;;;;;5040576;28;20439;-46
2023/08/09 05:09:05;;;;;;;6.60;2.50;;;21.60;58.60;;;;;;5043168;28;20234;-48
2023/08/09 05:11:31;;;;;;;2.30;1.90;;;21.70;58.40;;;;;;5047385;28;20835;-47
2023/08/09 05:13:57;;;;;;;2.40;2.03;;;21.70;58.10;;;;;;5046280;28;20188;-48
2023/08/09 05:16:24;;;;;;;2.77;2.23;;;21.80;57.80;;;;;;5052901;28;21037;-47
2023/08/09 05:18:51;;;;;;;2.37;2.17;;;21.80;57.60;;;;;;5051135;28;20211;-45
2023/08/09 05:21:17;;;;;;;7.37;2.53;;;21.70;57.30;;;;;;5047898;28;20461;-48
2023/08/09 05:23:42;;;;;;;5.57;2.47;;;21.70;57.60;;;;;;5049793;28;20789;-50
2023/08/09 05:26:08;;;;;;;3.70;2.43;;;21.90;58.40;;;;;;5043351;28;20555;-48
2023/08/09 05:28:33;;;;;;;4.70;2.07;;;22.00;57.20;;;;;;5045632;28;20193;-49
2023/08/09 05:30:59;;;;;;;6.93;2.03;;;22.10;56.70;;;;;;5048184;28;20204;-47
2023/08/09 05:33:25;;;;;;;6.27;2.73;;;22.30;56.90;;;;;;5000902;28;1139430;-48
2023/08/09 05:35:50;;;;;;;3.67;1.90;;;22.30;56.90;;;;;;5040718;28;20192;-48
2023/08/09 05:38:16;;;;;;;2.97;2.03;;;22.40;56.40;;;;;;5038754;28;20265;-50
2023/08/09 05:40:41;;;;;;;1.93;1.67;;;22.50;56.10;;;;;;5040671;28;20293;-47
2023/08/09 05:43:07;;;;;;;2.10;1.90;;;22.30;55.50;;;;;;5048204;28;20192;-49
2023/08/09 05:45:33;;;;;;;3.60;2.33;;;22.00;56.00;;;;;;5049590;28;20247;-45
2023/08/09 05:47:58;;;;;;;2.43;2.10;;;21.80;56.40;;;;;;5046556;28;20185;-50
2023/08/09 05:50:24;;;;;;;3.73;2.13;;;21.60;56.60;;;;;;5039684;28;20189;-45
2023/08/09 05:52:49;;;;;;;2.27;1.90;;;21.70;57.10;;;;;;5048284;28;20197;-46
2023/08/09 05:55:15;;;;;;;4.20;2.03;;;21.80;57.00;;;;;;5050317;28;20192;-50
2023/08/09 05:57:41;;;;;;;2.70;2.37;;;21.70;57.00;;;;;;5047334;28;20640;-47
2023/08/09 06:00:15;;;;;;;2.60;1.90;;;21.70;57.00;;;;;;5045334;28;20201;-47
2023/08/09 06:02:42;;;;;;;2.53;1.93;;;21.80;56.90;;;;;;5044231;28;20215;-46
2023/08/09 06:05:08;;;;;;;2.60;2.20;;;21.80;56.90;;;;;;5049575;28;20491;-47
2023/08/09 06:07:33;;;;;;;2.30;1.93;;;21.80;56.90;;;;;;5042776;28;20447;-47
2023/08/09 06:09:59;;;;;;;2.43;1.60;;;21.90;56.70;;;;;;5048662;28;20450;-45
2023/08/09 06:12:25;;;;;;;2.67;2.13;;;22.00;56.60;;;;;;5052394;28;20201;-45
2023/08/09 06:14:51;;;;;;;3.87;2.73;;;22.10;56.10;;;;;;5050862;28;20192;-48
2023/08/09 06:17:17;;;;;;;10.13;2.10;;;22.10;56.10;;;;;;5042217;28;20216;-50
2023/08/09 06:19:42;;;;;;;2.40;2.00;;;22.20;55.80;;;;;;5046075;28;20452;-45
2023/08/09 06:22:08;;;;;;;2.80;2.40;;;22.10;55.70;;;;;;5040984;28;20197;-45
2023/08/09 06:24:33;;;;;;;2.70;2.00;;;22.20;55.50;;;;;;5046960;28;20311;-45
2023/08/09 06:26:59;;;;;;;3.13;2.70;;;22.20;55.10;;;;;;5044887;28;20189;-49
2023/08/09 06:29:24;;;;;;;3.37;2.60;;;22.10;55.60;;;;;;5047625;28;20525;-51
2023/08/09 06:31:50;;;;;;;2.93;2.03;;;22.10;55.80;;;;;;5039386;28;20192;-47
2023/08/09 06:34:15;;;;;;;2.80;2.03;;;22.30;55.50;;;;;;5042316;28;20270;-47
2023/08/09 06:36:41;;;;;;;1.90;1.80;;;22.30;55.50;;;;;;5036985;28;20621;-48
2023/08/09 06:39:06;;;;;;;2.27;1.97;;;22.40;55.60;;;;;;5042818;28;20204;-46
2023/08/09 06:41:32;;;;;;;1.70;1.60;;;22.50;55.30;;;;;;5039662;28;20656;-45
2023/08/09 06:43:58;;;;;;;8.20;2.53;;;22.60;55.10;;;;;;5044556;28;20589;-44
2023/08/09 06:46:23;;;;;;;2.73;2.17;;;22.70;55.10;;;;;;5045135;28;20188;-46
2023/08/09 06:48:49;;;;;;;4.27;2.03;;;22.80;54.70;;;;;;5035593;28;20203;-48
2023/08/09 06:51:15;;;;;;;1.73;1.63;;;22.70;54.90;;;;;;5034719;28;20679;-45
2023/08/09 06:53:40;;;;;;;4.73;1.73;;;22.70;55.40;;;;;;5048141;28;20199;-45
2023/08/09 06:56:06;;;;;;;1.70;1.60;;;22.50;54.10;;;;;;5043828;28;20185;-49
2023/08/09 06:58:31;;;;;;;3.83;1.80;;;22.50;54.20;;;;;;5047246;28;20246;-51
2023/08/09 07:00:57;;;;;;;2.83;1.83;;;22.60;54.40;;;;;;5046225;28;20192;-45
2023/08/09 07:03:22;;;;;;;1.80;1.53;;;22.70;54.20;;;;;;5043242;28;20298;-50
2023/08/09 07:05:48;;;;;;;2.80;1.50;;;22.70;53.80;;;;;;5043740;28;20228;-44
2023/08/09 07:08:14;;;;;;;2.53;2.33;;;22.70;53.90;;;;;;5052158;28;20219;-46
2023/08/09 07:10:39;;;;;;;2.63;1.90;;;22.60;53.90;;;;;;5047146;28;20196;-50
2023/08/09 07:13:05;;;;;;;1.90;1.70;;;22.70;54.00;;;;;;5038488;28;20553;-44
2023/08/09 07:15:31;;;;;;;2.00;1.73;;;22.70;53.70;;;;;;5041587;28;20192;-47
2023/08/09 07:17:56;;;;;;;2.03;1.80;;;22.90;53.90;;;;;;5048636;28;20436;-44
2023/08/09 07:20:22;;;;;;;2.67;1.97;;;22.80;53.60;;;;;;5040762;28;20640;-48
2023/08/09 07:22:47;;;;;;;2.17;1.83;;;23.00;53.70;;;;;;5042377;28;20211;-45
2023/08/09 07:25:14;;;;;;;8.60;2.20;;;23.00;53.50;;;;;;5037475;28;20239;-50
2023/08/09 07:27:47;;;;;;;1.80;1.70;;;23.00;53.80;;;;;;5038937;28;20196;-44
2023/08/09 07:30:16;;;;;;;2.07;1.60;;;23.10;53.60;;;;;;5045846;28;20548;-47
2023/08/09 07:32:42;;;;;;;4.03;2.10;;;23.20;53.40;;;;;;5038853;28;20430;-50
2023/08/09 07:35:09;;;;;;;2.87;1.70;;;23.30;53.20;;;;;;5050771;28;20563;-44
2023/08/09 07:37:37;;;;;;;2.20;1.83;;;23.40;53.10;;;;;;5046063;28;20578;-47
2023/08/09 07:40:04;;;;;;;1.90;1.80;;;23.60;53.30;;;;;;5038730;28;20427;-50
2023/08/09 07:42:30;;;;;;;4.20;2.50;;;23.60;53.30;;;;;;5048018;28;20455;-45
2023/08/09 07:44:55;;;;;;;2.90;2.30;;;23.70;53.10;;;;;;5043516;28;20490;-46
2023/08/09 07:47:21;;;;;;;3.90;1.80;;;23.70;52.30;;;;;;5039113;28;20272;-44
2023/08/09 07:49:46;;;;;;;1.77;1.67;;;23.70;52.70;;;;;;5036406;28;20197;-46
2023/08/09 07:52:12;;;;;;;4.57;2.17;;;23.80;53.30;;;;;;5036340;28;20189;-47
2023/08/09 07:54:38;;;;;;;2.30;1.57;;;23.90;53.20;;;;;;5046987;28;20189;-48
2023/08/09 07:57:04;;;;;;;1.93;1.80;;;24.00;52.50;;;;;;5044105;28;20277;-51
2023/08/09 07:59:29;;;;;;;3.00;2.03;;;24.00;52.00;;;;;;5039563;28;20551;-49
2023/08/09 08:01:55;;;;;;;1.90;1.60;;;23.90;52.00;;;;;;5042723;28;20451;-48
2023/08/09 08:04:20;;;;;;;3.03;1.57;;;23.80;52.20;;;;;;5046377;28;20617;-44
2023/08/09 08:06:48;;;;;;;1.63;1.53;;;23.70;52.10;;;;;;5042224;28;20189;-48
2023/08/09 08:09:14;;;;;;;2.20;1.80;;;23.70;52.60;;;;;;5043491;28;20196;-48
2023/08/09 08:11:40;;;;;;;2.87;1.83;;;23.60;52.10;;;;;;5034692;28;20912;-47
2023/08/09 08:14:07;;;;;;;3.17;1.80;;;23.20;52.00;;;;;;5040457;28;20576;-49
2023/08/09 08:16:32;;;;;;;2.30;1.90;;;23.10;52.50;;;;;;5047701;28;20437;-47
2023/08/09 08:18:58;;;;;;;3.23;1.70;;;23.20;53.10;;;;;;5051267;28;20938;-47
2023/08/09 08:21:23;;;;;;;1.97;1.63;;;23.30;52.90;;;;;;5042924;28;20196;-49
2023/08/09 08:23:49;;;;;;;2.63;2.10;;;23.30;53.30;;;;;;5044076;28;20215;-47
2023/08/09 08:26:15;;;;;;;1.53;1.43;;;23.40;53.10;;;;;;5039887;28;20228;-49
2023/08/09 08:28:40;;;;;;;2.13;1.90;;;23.60;52.70;;;;;;5044323;28;20197;-48
2023/08/09 08:31:07;;;;;;;2.00;1.90;;;23.60;52.80;;;;;;5045810;28;20189;-51
2023/08/09 08:33:33;;;;;;;2.73;1.70;;;23.80;52.30;;;;;;5041971;28;20235;-48
2023/08/09 08:35:59;;;;;;;4.03;2.10;;;24.00;52.00;;;;;;5045671;28;20968;-46
2023/08/09 08:38:25;;;;;;;1.90;1.70;;;24.00;52.10;;;;;;5046128;28;20439;-48
2023/08/09 08:40:52;;;;;;;2.20;1.57;;;24.00;52.30;;;;;;5048974;28;20204;-50
2023/08/09 08:43:19;;;;;;;3.43;1.90;;;24.00;52.60;;;;;;5044056;28;20446;-47
2023/08/09 08:45:49;;;;;;;3.70;2.37;;;24.10;52.80;;;;;;5042097;28;20504;-46
2023/08/09 08:48:16;;;;;;;2.97;2.00;;;24.10;52.60;;;;;;5052129;28;20423;-50
2023/08/09 08:50:44;;;;;;;2.63;1.97;;;24.10;52.60;;;;;;5040873;28;20447;-49
2023/08/09 08:53:11;;;;;;;3.00;1.83;;;24.10;54.00;;;;;;5051843;28;20443;-49
2023/08/09 08:55:37;;;;;;;2.90;2.23;;;24.00;54.50;;;;;;5047325;28;20447;-48
2023/08/09 08:58:03;;;;;;;2.60;1.73;;;23.90;55.10;;;;;;5041032;28;20427;-48
2023/08/09 09:00:29;;;;;;;3.90;1.90;;;23.90;54.60;;;;;;5043865;28;20525;-45
2023/08/09 09:02:56;;;;;;;2.50;2.00;;;23.80;54.60;;;;;;5038985;28;20186;-48
2023/08/09 09:05:22;;;;;;;1.90;1.70;;;23.80;54.60;;;;;;5046641;28;20234;-51
2023/08/09 09:07:51;;;;;;;3.60;1.80;;;23.60;54.70;;;;;;5044683;28;20812;-50
2023/08/09 09:10:19;;;;;;;4.20;2.00;;;23.60;54.80;;;;;;5049618;28;20446;-51
2023/08/09 09:12:45;;;;;;;1.90;1.70;;;23.70;54.70;;;;;;5048610;28;20523;-51
2023/08/09 09:15:14;;;;;;;2.23;1.77;;;23.60;54.10;;;;;;5051327;28;20471;-47
2023/08/09 09:17:41;;;;;;;3.60;1.80;;;23.60;54.20;;;;;;5047696;28;20451;-50
2023/08/09 09:20:13;;;;;;;2.20;1.83;;;23.60;54.50;;;;;;5044139;28;20447;-49
2023/08/09 09:22:39;;;;;;;2.80;2.20;;;23.50;54.10;;;;;;5040775;28;20459;-50
2023/08/09 09:25:11;;;;;;;2.50;2.20;;;23.70;54.10;;;;;;5044441;28;20483;-45
2023/08/09 09:27:40;;;;;;;3.40;1.77;;;23.70;54.10;;;;;;5044459;28;20443;-48
2023/08/09 09:30:19;;;;;;;2.40;1.77;;;23.70;53.90;;;;;;5042343;28;20849;-46
2023/08/09 09:32:54;;;;;;;2.70;2.03;;;23.90;54.00;;;;;;5045597;28;20505;-47
2023/08/09 09:35:21;;;;;;;3.47;1.93;;;24.00;54.00;;;;;;5045397;28;20458;-49
2023/08/09 09:37:53;;;;;;;1.97;1.63;;;24.00;53.80;;;;;;5051652;28;20447;-50
2023/08/09 09:40:27;;;;;;;2.33;1.93;;;24.10;53.70;;;;;;5052467;28;20704;-47
2023/08/09 09:42:54;;;;;;;3.10;1.90;;;24.10;53.80;;;;;;5051225;28;20466;-48
2023/08/09 09:45:25;;;;;;;2.93;1.57;;;24.00;54.10;;;;;;5039681;28;20548;-51
2023/08/09 09:47:52;;;;;;;3.90;2.20;;;24.00;54.00;;;;;;5052021;28;20439;-51
2023/08/09 09:50:22;;;;;;;2.33;2.23;;;24.00;54.20;;;;;;5048518;28;20447;-51
2023/08/09 09:52:49;;;;;;;3.40;2.30;;;24.00;54.20;;;;;;5046201;28;20932;-51
2023/08/09 09:55:25;;;;;;;3.67;2.33;;;24.20;54.10;;;;;;5049492;28;20450;-51
2023/08/09 09:57:54;;;;;;;2.50;1.77;;;24.30;54.00;;;;;;5047801;28;20446;-50
2023/08/09 10:00:20;;;;;;;2.27;2.07;;;24.30;54.10;;;;;;5035323;28;20444;-49
2023/08/09 10:02:47;;;;;;;3.53;2.20;;;24.10;54.30;;;;;;5045717;28;20961;-50
2023/08/09 10:05:20;;;;;;;2.23;2.00;;;24.10;54.40;;;;;;5047360;28;20322;-51
2023/08/09 10:07:47;;;;;;;2.40;2.20;;;24.20;54.70;;;;;;5040870;28;20525;-47
2023/08/09 10:10:14;;;;;;;2.47;2.27;;;24.30;54.40;;;;;;5045496;28;20459;-51
2023/08/09 10:12:47;;;;;;;3.20;2.30;;;24.30;53.90;;;;;;5050213;28;20443;-45
2023/08/09 10:15:14;;;;;;;3.90;2.57;;;24.20;53.70;;;;;;5048741;28;20462;-45
2023/08/09 10:17:41;;;;;;;3.50;1.90;;;23.90;54.40;;;;;;5047172;28;21324;-49
2023/08/09 10:20:10;;;;;;;2.60;2.40;;;24.10;54.70;;;;;;5050349;28;20439;-51
2023/08/09 10:22:36;;;;;;;2.40;2.20;;;24.10;54.50;;;;;;5042715;28;21158;-49
2023/08/09 10:25:02;;;;;;;4.10;2.07;;;24.00;53.90;;;;;;5040773;28;21376;-51
2023/08/09 10:27:51;;;;;;;3.03;1.87;;;23.60;55.00;;;;;;5052557;28;20485;-50
2023/08/09 10:30:19;;;;;;;2.50;2.20;;;23.70;56.60;;;;;;5043503;28;20209;-49
2023/08/09 10:32:58;;;;;;;1.80;1.70;;;23.80;57.30;;;;;;5048309;28;20603;-50
2023/08/09 10:35:43;;;;;;;2.13;1.93;;;24.00;57.80;;;;;;5039944;28;20481;-51
2023/08/09 10:38:15;;;;;;;2.23;1.60;;;24.00;57.00;;;;;;5051409;28;20470;-49
2023/08/09 10:40:42;;;;;;;3.23;2.13;;;23.90;57.00;;;;;;5049554;28;20450;-47
2023/08/09 10:43:18;;;;;;;2.03;1.70;;;23.90;57.40;;;;;;5050096;28;20888;-51
2023/08/09 10:45:45;;;;;;;2.93;2.10;;;23.90;57.90;;;;;;5044590;28;20571;-46
2023/08/09 10:48:24;;;;;;;3.30;2.10;;;24.00;58.90;;;;;;5048582;28;20439;-47
2023/08/09 10:51:07;;;;;;;3.63;2.93;;;24.10;58.90;;;;;;5038910;28;20815;-48
2023/08/09 10:53:58;;;;;;;5.57;2.80;;;24.30;59.70;;;;;;5051410;28;20443;-48
2023/08/09 10:56:37;;;;;;;4.10;1.97;;;24.30;59.20;;;;;;5048086;28;20467;-51
2023/08/09 10:59:14;;;;;;;3.50;2.30;;;24.50;59.20;;;;;;5052138;28;20466;-51
2023/08/09 11:01:43;;;;;;;2.73;2.00;;;24.50;58.90;;;;;;5042562;28;20469;-48
2023/08/09 11:04:14;;;;;;;5.47;2.60;;;24.50;59.20;;;;;;5050926;28;20427;-50
2023/08/09 11:06:44;;;;;;;3.03;2.00;;;24.50;59.50;;;;;;5048030;28;20454;-49
2023/08/09 11:09:23;;;;;;;4.63;2.47;;;24.50;59.50;;;;;;5050715;28;20430;-49
2023/08/09 11:11:51;;;;;;;2.63;2.00;;;24.50;60.20;;;;;;5045406;28;20474;-50
2023/08/09 11:14:21;;;;;;;2.63;2.43;;;24.40;61.10;;;;;;5052205;28;20429;-47
2023/08/09 11:16:48;;;;;;;2.70;2.13;;;24.50;60.50;;;;;;5034462;28;20443;-51
2023/08/09 11:19:16;;;;;;;3.40;2.60;;;24.60;60.50;;;;;;5046255;28;20966;-48
2023/08/09 11:21:50;;;;;;;4.77;2.57;;;24.70;60.00;;;;;;5035664;28;20978;-46
2023/08/09 11:24:21;;;;;;;2.90;2.37;;;24.80;59.70;;;;;;5042007;28;20451;-52
2023/08/09 11:26:54;;;;;;;2.03;1.93;;;24.90;59.60;;;;;;5042424;28;22794;-49
2023/08/09 11:29:22;;;;;;;5.63;2.47;;;25.00;59.40;;;;;;5046507;28;20996;-50
2023/08/09 11:31:50;;;;;;;4.20;2.37;;;25.10;58.90;;;;;;5043680;28;20452;-46
2023/08/09 11:34:18;;;;;;;3.27;2.80;;;25.20;58.50;;;;;;5049348;28;20489;-49
2023/08/09 11:36:46;;;;;;;5.80;2.60;;;25.40;58.10;;;;;;5042334;28;20461;-49
2023/08/09 11:39:16;;;;;;;3.00;2.47;;;25.60;57.70;;;;;;5048885;28;20431;-47
2023/08/09 11:41:55;;;;;;;3.17;2.37;;;25.60;57.60;;;;;;5042499;28;20452;-49
2023/08/09 11:44:25;;;;;;;3.40;2.47;;;25.80;56.80;;;;;;5040444;28;20508;-50
2023/08/09 11:46:55;;;;;;;4.93;2.40;;;25.90;57.10;;;;;;5039718;28;20450;-52
2023/08/09 11:49:25;;;;;;;2.73;2.10;;;25.80;56.50;;;;;;5041064;28;20451;-50
2023/08/09 11:51:51;;;;;;;3.73;1.90;;;25.70;55.10;;;;;;5044332;28;20486;-52
2023/08/09 11:54:17;;;;;;;4.10;2.20;;;25.40;54.80;;;;;;5047002;28;20504;-48
2023/08/09 11:56:42;;;;;;;2.47;1.80;;;25.30;54.30;;;;;;5048852;28;20736;-46
2023/08/09 11:59:09;;;;;;;2.30;2.00;;;25.40;54.60;;;;;;5048680;28;20192;-51
2023/08/09 12:01:37;;;;;;;1.93;1.80;;;25.60;54.80;;;;;;5039356;28;20219;-46
2023/08/09 12:04:09;;;;;;;6.77;2.40;;;25.70;53.80;;;;;;5045608;28;20844;-50
2023/08/09 12:06:38;;;;;;;2.13;1.90;;;25.60;53.90;;;;;;5049252;28;20510;-50
2023/08/09 12:09:30;;;;;;;2.53;1.90;;;25.80;54.00;;;;;;5051728;28;20439;-47
2023/08/09 12:12:01;;;;;;;2.97;2.40;;;26.00;53.60;;;;;;5044159;28;20451;-48
2023/08/09 12:14:27;;;;;;;2.50;2.30;;;26.20;53.30;;;;;;5040608;28;20451;-48
2023/08/09 12:16:52;;;;;;;3.27;2.70;;;26.20;52.90;;;;;;5046925;28;20439;-47
2023/08/09 12:19:18;;;;;;;3.40;2.70;;;26.40;53.20;;;;;;5040097;28;20263;-47
2023/08/09 12:21:43;;;;;;;2.50;2.33;;;26.50;54.20;;;;;;5037779;28;20192;-52
2023/08/09 12:27:31;;;;;;;3.67;2.60;;;26.30;53.70;;;;;;5127862;22;20249;-50
2023/08/09 12:29:57;;;;;;;4.10;2.90;;;26.00;52.70;;;;;;4991770;28;20450;-48
2023/08/09 12:32:23;;;;;;;3.33;2.40;;;26.00;52.40;;;;;;4993229;28;20975;-49
2023/08/09 12:34:49;;;;;;;2.20;1.90;;;26.00;52.40;;;;;;4994039;28;20453;-45
2023/08/09 12:37:16;;;;;;;3.30;1.87;;;26.10;52.60;;;;;;4990600;28;20672;-49
2023/08/09 12:39:41;;;;;;;2.03;1.83;;;26.10;51.80;;;;;;4993178;28;20445;-49
2023/08/09 12:42:07;;;;;;;1.73;1.60;;;26.20;51.60;;;;;;4981694;28;20452;-45
2023/08/09 12:44:34;;;;;;;3.77;1.83;;;26.10;50.40;;;;;;4989739;28;20288;-46
2023/08/09 12:46:59;;;;;;;4.00;2.47;;;26.10;50.70;;;;;;4987032;28;20665;-47
2023/08/09 12:49:25;;;;;;;2.43;1.90;;;26.00;50.90;;;;;;4988460;28;20453;-45